TFFR/PTP METAR and TAF weather

Enter ICAO airport designator
Station Type Date Time Source
TFFR METAR 2020/12/06 01:00 UTC NOAA

TFFR 060100Z AUTO 12002KT 8000 NSC 22/21 Q1016 TEMPO 2500 SHRA SCT018CB SCT020TCU


Station Type Date Time Source
TFFR Decoded METAR 2020/12/06 01:00 UTC NOAA

Le Raizet, Guadeloupe, Guadeloupe (TFFR) 16-16N 061-31W 11M
Dec 05, 2020 - 08:00 PM EST / 2020.12.06 0100 UTC
Wind: from the ESE (120 degrees) at 2 MPH (2 KT):0
Visibility: 4 mile(s):0
Weather: Cumulonimbus clouds, towering cumulus clouds observed
Temperature: 71 F (22 C)
Dew Point: 69 F (21 C)
Relative Humidity: 94%
Pressure (altimeter): 30.00 in. Hg (1016 hPa)
ob: TFFR 060100Z AUTO 12002KT 8000 NSC 22/21 Q1016 TEMPO 2500 SHRA SCT018CB SCT020TCU
cycle: 1

Station Type Date Time Source
TFFR TAF 2020/12/05 18:41 UTC NOAA

TAF TFFR 051600Z 0518/0618 10008KT 9999 SCT025 SCT040 PROB30
TEMPO 0518/0618 2500 SHRA SCT018CB SCT020TCU

Example: see airport list